METAR Data
IDs: Format: Raw Decoded Include TAF

Data at: 0824 UTC 30 Oct 2020

KVRB 300753Z AUTO 23005KT 10SM BKN100 25/23 A2991 RMK AO2 SLP126 T02500233 $
KVRB 300653Z AUTO 22007KT 10SM CLR 25/23 A2991 RMK AO2 SLP126 T02500233 $

KVRB 300520Z 3006/3106 23006KT P6SM FEW040 FEW060 SCT200
  FM300900 27006KT P6SM VCSH SCT025 SCT040 BKN200
  FM301200 30007KT P6SM SCT025 SCT040
  FM301400 33010KT P6SM FEW030 FEW150 SCT250
  FM301800 36008KT P6SM FEW030 SCT250
  FM310000 01005KT P6SM FEW250